x

St. Augustine, Fl (sauf1) Weather Station

2:00am - Sun 17th Dec 2017 All times are EST. -5 hours from GMT.

  • Wind
    7mph, 8mph gusts
  • Sea Temp 63°f
  • Air Temp 58°f
  • Sea Pressure 1025.4mb
  • St. Augustine, Fl
  • St. Augustine, Fl

More Historic Weather Station data

Upgrade to MSW Pro to gain access to the past 30 days of data for over 8000 Wavebouys and Weather Stations around the globe.

Join

Comparision Forecast

View Surf forecast
   
Sun 12/17 2:00am 7 8 mph 1025.4mb 63f 58f
1:00am 6 7 mph 1025.7mb 63f 59f
12:00am 9 10 mph 1025.4mb 63f 60f
Sat 12/16 11:00pm 7 9 mph 1026mb 63f 60f
10:00pm 7 8 mph 1025.9mb 63f 59f
9:00pm 10 11 mph 1025.6mb 63f 59f
8:00pm 11 13 mph 1025.5mb 63f 58f
7:00pm 10 11 mph 1025.4mb 63f 57f
6:00pm 13 14 mph 1024.8mb 63f 56f
5:00pm 13 14 mph 1024.6mb 63f 56f
4:00pm 11 13 mph 1024.3mb 63f 56f
3:00pm 14 15 mph 1024.3mb 63f 55f
2:00pm 14 16 mph 1024.6mb 63f 55f
1:00pm 14 15 mph 1025.1mb 62f 56f
12:00pm 15 17 mph 1025.8mb 62f 55f
11:00am 14 15 mph 1026.1mb 62f 56f
10:00am 15 17 mph 1026.1mb 62f 55f
9:00am 16 17 mph 1025.5mb 62f 55f
8:00am 18 20 mph 1024.9mb 63f 55f
7:00am 13 15 mph 1024.2mb 63f 53f
6:00am 8 9 mph 1023.6mb 63f 53f
5:00am 9 10 mph 1022.7mb 64f 53f
4:00am 6 8 mph 1022.6mb 64f 54f
3:00am 10 11 mph 1022.3mb 64f 55f
2:00am 17 18 mph 1022.3mb 64f 56f
1:00am 6 7 mph 1021.7mb 64f 57f
12:00am 3 5 mph 1021.5mb 64f 57f
Fri 12/15 11:00pm 5 6 mph 1021.7mb 64f 58f
10:00pm 9 13 mph 1021.3mb 64f 61f
9:00pm 6 6 mph 1020.5mb 64f 63f
8:00pm 3 6 mph 1020mb 64f 65f
7:00pm 3 5 mph 1019.3mb 64f 66f
6:00pm 2 3 mph 1018.5mb 64f 68f
5:00pm 5 6 mph 1017.9mb 64f 70f
4:00pm 8 11 mph 1017.2mb 64f 72f
3:00pm 7 8 mph 1016.8mb 64f 71f
2:00pm 10 14 mph 1016.9mb 64f 71f
1:00pm 9 13 mph 1017.2mb 64f 69f
12:00pm 8 10 mph 1017.9mb 64f 68f
11:00am 11 14 mph 1018.5mb 63f 67f
10:00am 8 10 mph 1019mb 63f 63f
9:00am 6 7 mph 1018.5mb 63f 60f
8:00am 7 8 mph 1017.9mb 63f 57f
7:00am 6 7 mph 1017.7mb 63f 57f
6:00am 7 8 mph 1017.2mb 63f 58f
5:00am 6 7 mph 1017.3mb 63f 57f
4:00am 6 7 mph 1017mb 63f 57f
3:00am 6 7 mph 1017.3mb 63f 58f
2:00am 6 7 mph 1017.8mb 63f 58f
1:00am 6 7 mph 1017.6mb 63f 59f
12:00am 5 6 mph 1018mb 63f 59f
Thu 12/14 11:00pm 5 5 mph 1018mb 63f 60f
10:00pm 6 7 mph 1018.1mb 63f 62f
9:00pm 6 6 mph 1017.8mb 63f 64f
8:00pm 2 3 mph 1017.6mb 63f 64f
7:00pm 2 2 mph 1017.2mb 63f 65f
6:00pm  -  0 mph 1016.5mb 63f 65f
5:00pm 2 3 mph 1016.4mb 63f 67f
4:00pm 9 13 mph 1015.5mb 64f 68f
3:00pm 7 11 mph 1015.5mb 63f 68f
2:00pm 9 11 mph 1015.6mb 63f 67f
1:00pm 8 10 mph 1016mb 63f 65f
12:00pm 8 10 mph 1017.5mb 63f 63f
11:00am 7 8 mph 1018mb 61f 61f
10:00am 8 10 mph 1018.1mb 61f 58f
9:00am 6 7 mph 1017.6mb 61f 55f
8:00am 8 11 mph 1016.6mb 62f 51f
7:00am 7 8 mph 1016.3mb 62f 49f
6:00am 7 8 mph 1016.2mb 62f 47f
5:00am 8 10 mph 1015.7mb 62f 48f
4:00am 7 9 mph 1016.1mb 62f 46f
3:00am 7 9 mph 1016.7mb 62f 45f
2:00am 7 9 mph 1016.8mb 62f 44f
1:00am 7 8 mph 1016.6mb 61f 45f
12:00am 7 9 mph 1017.1mb 62f 46f
Wed 12/13 11:00pm 6 8 mph 1017.3mb 61f 46f
10:00pm 8 10 mph 1017.4mb 62f 48f
9:00pm 7 8 mph 1017.3mb 62f 49f
8:00pm 5 6 mph 1017.7mb 62f 49f
7:00pm 5 6 mph 1017.5mb 62f 51f
6:00pm 2 2 mph 1017.2mb 63f 54f
5:00pm 5 7 mph 1017.3mb 63f 58f
4:00pm 8 11 mph 1017.3mb 63f 58f
3:00pm 6 8 mph 1017.1mb 63f 57f
2:00pm 8 10 mph 1017.8mb 62f 55f
1:00pm 5 7 mph 1018.6mb 62f 55f
12:00pm 6 9 mph 1019.8mb 62f 52f
11:00am 9 11 mph 1020.6mb 61f 48f
10:00am 16 17 mph 1020.6mb 61f 46f
9:00am 10 13 mph 1020.2mb 60f 45f